createdAt,value
2023-04-27T00:00:15.160Z,147.20
2023-04-27T00:02:45.367Z,137.43
2023-04-27T00:05:16.379Z,133.63
2023-04-27T00:07:46.626Z,144.40
2023-04-27T00:10:16.595Z,142.07
2023-04-27T00:12:46.899Z,141.70
2023-04-27T00:15:17.151Z,139.75
2023-04-27T00:17:47.207Z,136.95
2023-04-27T00:20:18.401Z,130.82
2023-04-27T00:22:48.853Z,144.20
2023-04-27T00:25:18.871Z,144.45
2023-04-27T00:27:48.815Z,137.25
2023-04-27T00:30:20.451Z,139.80
2023-04-27T00:32:50.808Z,125.63
2023-04-27T00:37:54.633Z,121.38
2023-04-27T00:40:24.588Z,129.88
2023-04-27T00:42:58.620Z,152.25
2023-04-27T00:45:29.340Z,132.07
2023-04-27T00:48:06.612Z,121.10
2023-04-27T00:50:37.221Z,138.57
2023-04-27T00:55:39.934Z,126.32
2023-04-27T00:58:10.710Z,128.00
2023-04-27T01:00:42.478Z,120.07
2023-04-27T01:03:13.284Z,121.18
2023-04-27T01:05:47.224Z,135.30
2023-04-27T01:08:17.397Z,148.68
2023-04-27T01:13:16.605Z,139.35
2023-04-27T01:15:47.834Z,143.20
2023-04-27T01:18:17.910Z,135.88
2023-04-27T01:20:48.617Z,140.30
2023-04-27T01:23:20.593Z,146.98
2023-04-27T01:25:50.514Z,140.65
2023-04-27T01:28:20.470Z,146.23
2023-04-27T01:30:51.613Z,138.00
2023-04-27T01:33:21.678Z,137.60
2023-04-27T01:35:54.036Z,152.77
2023-04-27T01:38:25.732Z,154.27
2023-04-27T01:40:57.108Z,151.02
2023-04-27T01:43:26.942Z,149.73
2023-04-27T01:45:57.096Z,148.32
2023-04-27T01:50:56.369Z,156.23
2023-04-27T01:53:26.401Z,164.57
2023-04-27T01:55:56.379Z,164.13
2023-04-27T01:58:32.722Z,170.05
2023-04-27T02:01:03.700Z,167.13
2023-04-27T02:03:34.371Z,180.40
2023-04-27T02:06:04.941Z,168.40
2023-04-27T02:08:36.501Z,167.20
2023-04-27T02:11:08.309Z,160.20
2023-04-27T02:13:38.276Z,166.48
2023-04-27T02:18:37.840Z,166.35
2023-04-27T02:23:43.570Z,177.20
2023-04-27T02:28:54.102Z,203.23
2023-04-27T02:31:25.782Z,179.50
2023-04-27T02:33:55.847Z,169.10
2023-04-27T02:38:55.573Z,164.80
2023-04-27T02:41:25.738Z,158.18
2023-04-27T02:44:02.269Z,149.93
2023-04-27T02:46:32.601Z,161.75
2023-04-27T02:49:02.619Z,147.10
2023-04-27T02:54:02.098Z,174.77
2023-04-27T02:56:32.581Z,164.10
2023-04-27T02:59:02.712Z,171.70
2023-04-27T03:04:02.230Z,160.43
2023-04-27T03:06:32.291Z,167.45
2023-04-27T03:11:31.483Z,152.17
2023-04-27T03:16:31.383Z,157.48
2023-04-27T03:19:01.594Z,142.32
2023-04-27T03:21:31.630Z,134.05
2023-04-27T03:24:04.564Z,142.07
2023-04-27T03:26:34.458Z,134.57
2023-04-27T03:29:04.426Z,125.90
2023-04-27T03:31:34.466Z,134.10
2023-04-27T03:34:05.893Z,134.50
2023-04-27T03:36:35.782Z,130.25
2023-04-27T03:39:05.794Z,131.43
2023-04-27T03:41:35.864Z,136.38
2023-04-27T03:44:07.743Z,142.75
2023-04-27T03:46:41.493Z,140.13
2023-04-27T03:49:13.523Z,144.60
2023-04-27T03:51:44.302Z,125.85
2023-04-27T03:54:14.216Z,122.85
2023-04-27T03:56:44.081Z,140.73
2023-04-27T04:04:13.674Z,135.85
2023-04-27T04:06:45.529Z,139.27
2023-04-27T04:09:17.000Z,143.82
2023-04-27T04:11:47.008Z,131.15
2023-04-27T04:14:16.998Z,125.00
2023-04-27T04:16:46.968Z,121.65
2023-04-27T04:19:19.591Z,124.25
2023-04-27T04:21:51.663Z,121.65
2023-04-27T04:24:22.622Z,119.25
2023-04-27T04:26:53.064Z,116.20
2023-04-27T04:29:24.453Z,130.27
2023-04-27T04:31:59.861Z,111.15
2023-04-27T04:34:30.881Z,93.60
2023-04-27T04:37:01.146Z,88.28
2023-04-27T04:39:35.848Z,83.80
2023-04-27T04:42:06.309Z,91.60
2023-04-27T04:44:36.311Z,97.80
2023-04-27T04:47:06.475Z,104.60
2023-04-27T04:49:38.283Z,86.15
2023-04-27T04:52:08.394Z,100.25
2023-04-27T04:54:38.283Z,111.13
2023-04-27T04:57:10.458Z,104.47
2023-04-27T04:59:40.475Z,84.80
2023-04-27T05:02:10.786Z,99.47
2023-04-27T05:04:41.509Z,83.07
2023-04-27T05:07:19.164Z,77.22
2023-04-27T05:09:52.438Z,84.25
2023-04-27T05:12:23.625Z,86.38
2023-04-27T05:14:55.050Z,94.05
2023-04-27T05:17:25.389Z,102.55
2023-04-27T05:19:55.378Z,100.15
2023-04-27T05:22:30.187Z,76.88
2023-04-27T05:25:00.739Z,81.00
2023-04-27T05:27:30.794Z,77.53
2023-04-27T05:30:00.638Z,84.13
2023-04-27T05:32:30.629Z,88.60
2023-04-27T05:35:02.056Z,87.47
2023-04-27T05:37:32.078Z,68.95
2023-04-27T05:40:02.243Z,72.82
2023-04-27T05:42:32.592Z,72.47
2023-04-27T05:45:02.267Z,58.05
2023-04-27T05:47:32.779Z,62.22
2023-04-27T05:50:05.320Z,78.57
2023-04-27T05:52:37.557Z,65.32
2023-04-27T05:55:10.171Z,57.17
2023-04-27T05:57:41.487Z,62.40
2023-04-27T06:00:12.724Z,61.33
2023-04-27T06:02:43.081Z,60.42
2023-04-27T06:05:13.725Z,53.88
2023-04-27T06:07:45.560Z,54.72
2023-04-27T06:10:15.753Z,55.58
2023-04-27T06:12:47.787Z,53.95
2023-04-27T06:15:18.691Z,52.95
2023-04-27T06:17:51.806Z,56.75
2023-04-27T06:20:22.178Z,61.10
2023-04-27T06:22:53.040Z,68.78
2023-04-27T06:25:25.013Z,65.03
2023-04-27T06:28:01.192Z,60.83
2023-04-27T06:30:32.783Z,65.82
2023-04-27T06:33:03.323Z,63.75
2023-04-27T06:35:33.831Z,66.97
2023-04-27T06:38:07.949Z,68.10
2023-04-27T06:40:39.176Z,65.18
2023-04-27T06:43:09.567Z,59.28
2023-04-27T06:45:39.973Z,57.83
2023-04-27T06:48:10.497Z,58.83
2023-04-27T06:50:40.911Z,65.05
2023-04-27T06:53:11.824Z,65.07
2023-04-27T06:55:44.422Z,67.47
2023-04-27T06:58:16.071Z,76.18
2023-04-27T07:00:49.481Z,68.45
2023-04-27T07:03:21.301Z,70.97
2023-04-27T07:05:53.258Z,68.18
2023-04-27T07:08:23.638Z,67.47
2023-04-27T07:10:53.974Z,67.63
2023-04-27T07:13:25.712Z,64.88
2023-04-27T07:16:03.010Z,72.28
2023-04-27T07:18:36.215Z,74.38
2023-04-27T07:21:06.421Z,77.05
2023-04-27T07:23:37.057Z,77.20
2023-04-27T07:26:07.412Z,67.20
2023-04-27T07:28:37.890Z,71.30
2023-04-27T07:31:08.956Z,68.53
2023-04-27T07:33:39.281Z,69.10
2023-04-27T07:36:11.273Z,67.70
2023-04-27T07:38:41.759Z,67.05
2023-04-27T07:41:12.265Z,66.65
2023-04-27T07:43:43.916Z,69.13
2023-04-27T07:46:14.705Z,65.95
2023-04-27T07:48:45.621Z,70.43
2023-04-27T07:51:17.625Z,65.93
2023-04-27T07:53:48.037Z,64.07
2023-04-27T07:56:18.485Z,66.70
2023-04-27T07:58:48.871Z,67.88
2023-04-27T08:01:21.409Z,59.28
2023-04-27T08:03:52.509Z,70.45
2023-04-27T08:06:23.888Z,64.80
2023-04-27T08:08:54.784Z,66.25
2023-04-27T08:11:25.014Z,60.92
2023-04-27T08:13:55.289Z,60.25
2023-04-27T08:16:25.291Z,58.42
2023-04-27T08:18:55.522Z,66.50
2023-04-27T08:21:27.861Z,57.35
2023-04-27T08:24:00.375Z,65.35
2023-04-27T08:26:30.651Z,64.15
2023-04-27T08:29:19.288Z,57.58
2023-04-27T08:31:52.638Z,54.95
2023-04-27T08:34:23.661Z,59.33
2023-04-27T08:36:54.647Z,52.88
2023-04-27T08:39:25.861Z,64.68
2023-04-27T08:41:55.994Z,61.40
2023-04-27T08:44:26.451Z,60.30
2023-04-27T08:46:57.802Z,57.97
2023-04-27T08:49:28.364Z,58.88
2023-04-27T08:51:58.502Z,58.05
2023-04-27T08:54:28.824Z,61.10
2023-04-27T08:57:00.351Z,58.88
2023-04-27T08:59:30.628Z,65.20
2023-04-27T09:02:00.717Z,55.60
2023-04-27T09:04:48.527Z,65.10
2023-04-27T09:07:20.574Z,65.50
2023-04-27T09:09:51.631Z,67.80
2023-04-27T09:12:23.975Z,67.88
2023-04-27T09:15:01.748Z,66.28
2023-04-27T09:17:32.917Z,64.47
2023-04-27T09:20:15.098Z,64.22
2023-04-27T09:22:49.023Z,64.78
2023-04-27T09:25:33.036Z,62.08
2023-04-27T09:28:04.895Z,58.80
2023-04-27T09:30:35.429Z,65.93
2023-04-27T09:33:06.637Z,54.67
2023-04-27T09:35:37.063Z,63.42
2023-04-27T09:38:07.789Z,63.42
2023-04-27T09:40:38.555Z,58.35
2023-04-27T09:43:10.062Z,58.35
2023-04-27T09:45:41.443Z,67.25
2023-04-27T09:48:12.872Z,55.63
2023-04-27T09:50:46.187Z,62.65
2023-04-27T09:53:20.712Z,60.70
2023-04-27T09:56:02.579Z,66.20
2023-04-27T09:59:09.382Z,63.45
2023-04-27T10:01:50.002Z,65.20
2023-04-27T10:04:58.736Z,66.55
2023-04-27T10:07:30.610Z,55.87
2023-04-27T10:10:06.518Z,69.68
2023-04-27T10:12:38.561Z,68.43
2023-04-27T10:15:18.871Z,61.03
2023-04-27T10:17:57.167Z,74.95
2023-04-27T10:20:40.704Z,76.47
2023-04-27T10:23:11.429Z,70.50
2023-04-27T10:25:43.872Z,75.68
2023-04-27T10:28:20.238Z,67.10
2023-04-27T10:30:51.308Z,70.10
2023-04-27T10:33:24.823Z,76.75
2023-04-27T10:36:02.078Z,108.28
2023-04-27T10:38:34.740Z,80.55
2023-04-27T10:41:09.125Z,74.72
2023-04-27T10:43:39.475Z,85.00
2023-04-27T10:46:17.290Z,75.78
2023-04-27T10:48:47.806Z,86.93
2023-04-27T10:51:21.253Z,78.50
2023-04-27T10:53:55.662Z,80.43
2023-04-27T10:56:26.513Z,91.00
2023-04-27T10:58:58.788Z,79.10
2023-04-27T11:01:31.021Z,82.00
2023-04-27T11:04:04.993Z,81.60
2023-04-27T11:06:45.841Z,81.30
2023-04-27T11:09:30.571Z,84.80
2023-04-27T11:12:00.820Z,80.50
2023-04-27T11:14:31.799Z,84.13
2023-04-27T11:17:02.335Z,88.00
2023-04-27T11:19:33.892Z,96.80
2023-04-27T11:22:08.708Z,92.55
2023-04-27T11:24:39.139Z,89.43
2023-04-27T11:27:09.361Z,85.93
2023-04-27T11:29:44.174Z,86.60
2023-04-27T11:32:25.306Z,86.28
2023-04-27T11:34:58.414Z,81.38
2023-04-27T11:37:31.354Z,81.53
2023-04-27T11:40:04.448Z,89.03
2023-04-27T11:42:34.799Z,85.57
2023-04-27T11:45:08.336Z,81.82
2023-04-27T11:47:39.664Z,86.90
2023-04-27T11:50:11.476Z,80.13
2023-04-27T11:52:42.994Z,91.03
2023-04-27T11:55:17.560Z,78.47
2023-04-27T11:57:47.759Z,82.03
2023-04-27T12:00:18.979Z,84.30
2023-04-27T12:02:49.075Z,69.82
2023-04-27T12:05:21.567Z,83.40
2023-04-27T12:07:51.736Z,80.82
2023-04-27T12:12:50.996Z,82.25
2023-04-27T12:17:50.137Z,83.70
2023-04-27T12:20:23.299Z,83.13
2023-04-27T12:22:53.461Z,85.53
2023-04-27T12:25:23.647Z,82.75
2023-04-27T12:27:54.108Z,89.85
2023-04-27T12:30:25.586Z,85.80
2023-04-27T12:32:57.265Z,79.28
2023-04-27T12:35:30.254Z,86.63
2023-04-27T12:38:00.501Z,99.00
2023-04-27T12:40:34.456Z,104.95
2023-04-27T12:43:04.384Z,88.68
2023-04-27T12:48:04.629Z,98.75
2023-04-27T12:50:35.360Z,86.88
2023-04-27T12:53:05.683Z,98.63
2023-04-27T12:55:35.874Z,105.95
2023-04-27T12:58:06.606Z,106.88
2023-04-27T13:00:37.162Z,111.75
2023-04-27T13:03:08.418Z,106.20
2023-04-27T13:05:39.616Z,120.85
2023-04-27T13:08:09.506Z,111.60
2023-04-27T13:10:39.619Z,106.63
2023-04-27T13:13:12.830Z,111.32
2023-04-27T13:15:44.153Z,112.30
2023-04-27T13:18:14.149Z,116.10
2023-04-27T13:20:45.736Z,116.30
2023-04-27T13:23:16.808Z,129.27
2023-04-27T13:25:47.120Z,120.38
2023-04-27T13:28:19.173Z,135.57
2023-04-27T13:30:51.133Z,188.45
2023-04-27T13:33:23.678Z,229.50
2023-04-27T13:35:54.567Z,202.10
2023-04-27T13:38:26.353Z,186.90
2023-04-27T13:40:57.034Z,156.55
2023-04-27T13:43:28.722Z,144.57
2023-04-27T13:46:00.756Z,139.35
2023-04-27T13:48:32.049Z,137.00
2023-04-27T13:51:02.447Z,135.30
2023-04-27T13:53:32.773Z,129.38
2023-04-27T13:56:02.927Z,128.48
2023-04-27T13:58:34.806Z,129.93
2023-04-27T14:01:05.630Z,126.32
2023-04-27T14:03:37.108Z,122.88
2023-04-27T14:06:09.397Z,124.25
2023-04-27T14:08:39.648Z,123.28
2023-04-27T14:11:09.952Z,119.28
2023-04-27T14:13:40.190Z,125.10
2023-04-27T14:16:11.084Z,119.38
2023-04-27T14:18:42.274Z,134.07
2023-04-27T14:21:12.502Z,128.85
2023-04-27T14:23:43.063Z,121.47
2023-04-27T14:26:13.951Z,129.90
2023-04-27T14:28:44.748Z,123.50
2023-04-27T14:31:16.143Z,122.35
2023-04-27T14:33:48.474Z,132.30
2023-04-27T14:36:22.873Z,133.45
2023-04-27T14:38:53.234Z,128.43
2023-04-27T14:41:23.710Z,112.25
2023-04-27T14:43:54.787Z,129.95
2023-04-27T14:46:26.463Z,127.32
2023-04-27T14:48:56.829Z,130.88
2023-04-27T14:51:26.883Z,120.82
2023-04-27T14:56:31.600Z,136.43
2023-04-27T14:59:01.986Z,118.07
2023-04-27T15:01:33.973Z,122.85
2023-04-27T15:04:07.890Z,114.78
2023-04-27T15:06:37.809Z,122.70
2023-04-27T15:09:11.271Z,136.52
2023-04-27T15:11:41.564Z,120.43
2023-04-27T15:14:12.442Z,123.15
2023-04-27T15:16:42.209Z,117.63
2023-04-27T15:19:12.962Z,127.03
2023-04-27T15:21:43.394Z,141.02
2023-04-27T15:24:13.770Z,119.88
2023-04-27T15:26:44.207Z,128.23
2023-04-27T15:29:15.002Z,124.47
2023-04-27T15:31:45.449Z,116.95
2023-04-27T15:34:15.584Z,118.55
2023-04-27T15:39:15.494Z,119.47
2023-04-27T15:41:46.396Z,117.00
2023-04-27T15:44:16.656Z,124.90
2023-04-27T15:46:47.184Z,115.70
2023-04-27T15:49:17.845Z,129.25
2023-04-27T15:51:47.913Z,121.35
2023-04-27T15:56:47.962Z,154.30
2023-04-27T15:59:19.583Z,130.73
2023-04-27T16:01:49.660Z,128.75
2023-04-27T16:06:49.820Z,145.00
2023-04-27T16:09:20.007Z,134.88
2023-04-27T16:11:49.726Z,151.80
2023-04-27T16:14:19.645Z,173.35
2023-04-27T16:16:53.152Z,167.07
2023-04-27T16:19:23.573Z,159.98
2023-04-27T16:21:53.537Z,147.00
2023-04-27T16:24:23.943Z,170.65
2023-04-27T16:26:54.588Z,152.57
2023-04-27T16:29:24.979Z,147.02
2023-04-27T16:31:55.699Z,157.20
2023-04-27T16:34:25.718Z,145.10
2023-04-27T16:36:56.594Z,133.35
2023-04-27T16:39:28.378Z,142.60
2023-04-27T16:41:58.807Z,156.93
2023-04-27T16:44:30.486Z,127.47
2023-04-27T16:47:00.778Z,135.25
2023-04-27T16:49:30.523Z,140.98
2023-04-27T16:52:00.680Z,137.27
2023-04-27T16:54:31.986Z,136.20
2023-04-27T16:57:02.251Z,143.13
2023-04-27T16:59:32.205Z,156.02
2023-04-27T17:02:12.935Z,154.13
2023-04-27T17:04:54.492Z,135.57
2023-04-27T17:07:24.815Z,144.18
2023-04-27T17:09:55.653Z,162.02
2023-04-27T17:12:28.591Z,140.80
2023-04-27T17:14:58.351Z,132.07
2023-04-27T17:17:29.379Z,137.25
2023-04-27T17:20:01.522Z,129.82
2023-04-27T17:22:31.843Z,118.38
2023-04-27T17:25:01.906Z,121.85
2023-04-27T17:30:01.304Z,128.70
2023-04-27T17:35:01.258Z,124.55
2023-04-27T17:40:00.332Z,120.15
2023-04-27T17:42:30.540Z,131.27
2023-04-27T17:47:31.252Z,125.85
2023-04-27T17:50:02.430Z,118.63
2023-04-27T17:52:32.335Z,110.82
2023-04-27T17:55:02.552Z,114.13
2023-04-27T18:00:01.391Z,115.53
2023-04-27T18:02:31.344Z,111.15
2023-04-27T18:05:02.020Z,114.93
2023-04-27T18:07:31.907Z,121.05
2023-04-27T18:10:01.704Z,123.70
2023-04-27T18:12:31.853Z,129.55
2023-04-27T18:15:04.419Z,127.95
2023-04-27T18:17:35.509Z,113.88
2023-04-27T18:20:10.759Z,121.13
2023-04-27T18:22:41.597Z,121.10
2023-04-27T18:25:14.910Z,128.13
2023-04-27T18:27:47.413Z,129.23
2023-04-27T18:30:17.590Z,115.65
2023-04-27T18:32:47.338Z,112.82
2023-04-27T18:35:17.108Z,120.35
2023-04-27T18:37:50.527Z,109.18
2023-04-27T18:40:22.400Z,123.28
2023-04-27T18:42:53.656Z,123.93
2023-04-27T18:45:23.579Z,115.88
2023-04-27T18:47:53.333Z,120.55
2023-04-27T18:50:24.881Z,119.60
2023-04-27T18:52:54.683Z,114.82
2023-04-27T18:55:26.723Z,114.35
2023-04-27T18:57:56.462Z,129.13
2023-04-27T19:00:26.260Z,129.23
2023-04-27T19:02:56.223Z,124.03
2023-04-27T19:05:27.295Z,128.23
2023-04-27T19:07:58.158Z,144.00
2023-04-27T19:10:29.610Z,141.15
2023-04-27T19:12:59.488Z,130.38
2023-04-27T19:15:29.379Z,142.30
2023-04-27T19:18:09.384Z,143.80
2023-04-27T19:20:40.762Z,138.73
2023-04-27T19:23:14.373Z,142.55
2023-04-27T19:25:44.262Z,137.77
2023-04-27T19:28:14.824Z,141.70
2023-04-27T19:30:44.916Z,135.77
2023-04-27T19:33:14.781Z,135.32
2023-04-27T19:35:44.854Z,157.85
2023-04-27T19:38:14.596Z,158.90
2023-04-27T19:40:44.329Z,144.85
2023-04-27T19:43:16.940Z,157.63
2023-04-27T19:45:46.832Z,190.35
2023-04-27T19:48:16.549Z,186.73
2023-04-27T19:50:49.015Z,195.15
2023-04-27T19:53:20.645Z,198.73
2023-04-27T19:55:50.541Z,198.02
2023-04-27T19:58:20.433Z,204.95
2023-04-27T20:00:50.159Z,196.50
2023-04-27T20:03:24.076Z,194.77
2023-04-27T20:05:55.727Z,182.80
2023-04-27T20:08:25.715Z,192.43
2023-04-27T20:10:55.677Z,182.48
2023-04-27T20:13:25.465Z,175.65
2023-04-27T20:15:55.178Z,194.32
2023-04-27T20:18:26.649Z,182.93
2023-04-27T20:20:56.500Z,179.23
2023-04-27T20:23:27.867Z,179.25
2023-04-27T20:26:00.557Z,169.55
2023-04-27T20:28:30.546Z,176.95
2023-04-27T20:31:00.744Z,162.50
2023-04-27T20:33:30.577Z,151.13
2023-04-27T20:36:06.731Z,161.30
2023-04-27T20:38:46.382Z,165.77
2023-04-27T20:41:16.283Z,153.65
2023-04-27T20:43:47.099Z,154.88
2023-04-27T20:46:17.013Z,158.02
2023-04-27T20:48:47.945Z,153.35
2023-04-27T20:51:17.890Z,155.38
2023-04-27T20:53:47.798Z,153.20
2023-04-27T20:56:18.497Z,168.90
2023-04-27T20:58:48.472Z,158.32
2023-04-27T21:01:18.425Z,170.50
2023-04-27T21:03:48.226Z,175.63
2023-04-27T21:06:19.495Z,168.52
2023-04-27T21:08:49.351Z,168.88
2023-04-27T21:11:19.116Z,169.00
2023-04-27T21:13:48.923Z,171.52
2023-04-27T21:16:18.672Z,180.40
2023-04-27T21:18:48.413Z,167.05
2023-04-27T21:21:17.997Z,170.70
2023-04-27T21:23:49.849Z,157.20
2023-04-27T21:26:21.918Z,158.05
2023-04-27T21:28:51.632Z,167.88
2023-04-27T21:31:21.535Z,162.40
2023-04-27T21:33:52.364Z,161.40
2023-04-27T21:36:22.682Z,163.65
2023-04-27T21:41:23.704Z,180.55
2023-04-27T21:43:54.939Z,202.15
2023-04-27T21:46:26.119Z,204.95
2023-04-27T21:48:55.863Z,203.38
2023-04-27T21:51:25.592Z,205.35
2023-04-27T21:53:55.493Z,202.35
2023-04-27T21:56:25.200Z,195.00
2023-04-27T21:58:56.438Z,208.40
2023-04-27T22:01:28.598Z,202.48
2023-04-27T22:04:00.982Z,206.25
2023-04-27T22:06:32.961Z,207.30
2023-04-27T22:09:03.884Z,216.60
2023-04-27T22:11:35.065Z,219.38
2023-04-27T22:14:04.965Z,207.32
2023-04-27T22:16:35.020Z,239.80
2023-04-27T22:19:05.541Z,227.05
2023-04-27T22:24:04.532Z,264.60
2023-04-27T22:26:35.274Z,255.43
2023-04-27T22:29:05.026Z,263.35
2023-04-27T22:31:35.181Z,277.55
2023-04-27T22:36:35.809Z,318.80
2023-04-27T22:39:05.845Z,342.55
2023-04-27T22:41:35.658Z,366.35
2023-04-27T22:44:05.415Z,433.60
2023-04-27T22:46:35.228Z,473.65
2023-04-27T22:49:05.084Z,489.30
2023-04-27T22:51:34.788Z,491.15
2023-04-27T22:54:04.540Z,493.13
2023-04-27T22:56:34.773Z,481.85
2023-04-27T23:01:34.596Z,481.58
2023-04-27T23:04:04.554Z,464.20
2023-04-27T23:06:35.310Z,483.40
2023-04-27T23:09:05.064Z,448.30
2023-04-27T23:11:34.787Z,480.50
2023-04-27T23:14:04.806Z,471.20
2023-04-27T23:16:34.712Z,437.63
2023-04-27T23:19:04.625Z,411.95
2023-04-27T23:22:32.208Z,391.90
2023-04-27T23:25:08.759Z,350.27
2023-04-27T23:27:38.691Z,361.02
2023-04-27T23:30:08.750Z,346.38
2023-04-27T23:32:39.037Z,351.77
2023-04-27T23:37:38.833Z,311.52
2023-04-27T23:40:08.981Z,308.45
2023-04-27T23:42:38.691Z,207.70
2023-04-27T23:45:08.739Z,187.25
2023-04-27T23:47:40.100Z,197.25
2023-04-27T23:50:10.181Z,205.75
2023-04-27T23:52:39.378Z,192.13
2023-04-27T23:55:39.889Z,209.57
2023-04-27T23:58:09.694Z,233.50
